sensor_id;sensor_type;location;lat;lon;timestamp;P1;durP1;ratioP1;P2;durP2;ratioP2
47856;SDS011;33618;49.972;8.242;2023-03-01T00:00:07;12.52;;;7.65;;
47856;SDS011;33618;49.972;8.242;2023-03-01T00:02:35;11.30;;;7.63;;
47856;SDS011;33618;49.972;8.242;2023-03-01T00:05:03;12.40;;;7.35;;
47856;SDS011;33618;49.972;8.242;2023-03-01T00:07:30;10.52;;;7.57;;
47856;SDS011;33618;49.972;8.242;2023-03-01T00:09:57;13.45;;;7.80;;
47856;SDS011;33618;49.972;8.242;2023-03-01T00:12:24;13.00;;;7.85;;
47856;SDS011;33618;49.972;8.242;2023-03-01T00:14:51;14.48;;;8.20;;
47856;SDS011;33618;49.972;8.242;2023-03-01T00:17:18;14.80;;;8.00;;
47856;SDS011;33618;49.972;8.242;2023-03-01T00:19:45;13.23;;;7.72;;
47856;SDS011;33618;49.972;8.242;2023-03-01T00:22:12;11.00;;;7.53;;
47856;SDS011;33618;49.972;8.242;2023-03-01T00:24:39;12.02;;;7.70;;
47856;SDS011;33618;49.972;8.242;2023-03-01T00:27:06;13.27;;;7.90;;
47856;SDS011;33618;49.972;8.242;2023-03-01T00:29:34;12.93;;;7.75;;
47856;SDS011;33618;49.972;8.242;2023-03-01T00:32:00;10.73;;;7.75;;
47856;SDS011;33618;49.972;8.242;2023-03-01T00:34:28;16.13;;;8.35;;
47856;SDS011;33618;49.972;8.242;2023-03-01T00:36:55;11.45;;;7.43;;
47856;SDS011;33618;49.972;8.242;2023-03-01T00:39:22;13.60;;;7.80;;
47856;SDS011;33618;49.972;8.242;2023-03-01T00:41:48;15.32;;;8.45;;
47856;SDS011;33618;49.972;8.242;2023-03-01T00:44:16;14.80;;;7.60;;
47856;SDS011;33618;49.972;8.242;2023-03-01T00:46:43;15.18;;;7.82;;
47856;SDS011;33618;49.972;8.242;2023-03-01T00:49:10;12.00;;;7.97;;
47856;SDS011;33618;49.972;8.242;2023-03-01T00:51:37;13.98;;;7.65;;
47856;SDS011;33618;49.972;8.242;2023-03-01T00:54:07;12.85;;;8.13;;
47856;SDS011;33618;49.972;8.242;2023-03-01T00:56:35;10.82;;;7.78;;
47856;SDS011;33618;49.972;8.242;2023-03-01T00:59:02;14.35;;;7.72;;
47856;SDS011;33618;49.972;8.242;2023-03-01T01:01:30;15.75;;;8.02;;
47856;SDS011;33618;49.972;8.242;2023-03-01T01:03:58;14.65;;;7.95;;
47856;SDS011;33618;49.972;8.242;2023-03-01T01:06:28;16.50;;;8.43;;
47856;SDS011;33618;49.972;8.242;2023-03-01T01:08:58;14.77;;;7.88;;
47856;SDS011;33618;49.972;8.242;2023-03-01T01:11:27;12.70;;;7.68;;
47856;SDS011;33618;49.972;8.242;2023-03-01T01:13:56;13.80;;;8.13;;
47856;SDS011;33618;49.972;8.242;2023-03-01T01:16:24;12.73;;;8.18;;
47856;SDS011;33618;49.972;8.242;2023-03-01T01:18:52;15.10;;;8.55;;
47856;SDS011;33618;49.972;8.242;2023-03-01T01:21:20;14.98;;;8.50;;
47856;SDS011;33618;49.972;8.242;2023-03-01T01:23:49;13.57;;;8.45;;
47856;SDS011;33618;49.972;8.242;2023-03-01T01:26:21;15.50;;;8.90;;
47856;SDS011;33618;49.972;8.242;2023-03-01T01:28:51;13.48;;;8.55;;
47856;SDS011;33618;49.972;8.242;2023-03-01T01:31:18;14.88;;;8.68;;
47856;SDS011;33618;49.972;8.242;2023-03-01T01:33:46;15.15;;;8.68;;
47856;SDS011;33618;49.972;8.242;2023-03-01T01:36:13;14.02;;;8.15;;
47856;SDS011;33618;49.972;8.242;2023-03-01T01:38:40;15.63;;;8.30;;
47856;SDS011;33618;49.972;8.242;2023-03-01T01:41:09;14.00;;;8.18;;
47856;SDS011;33618;49.972;8.242;2023-03-01T01:43:39;14.63;;;8.63;;
47856;SDS011;33618;49.972;8.242;2023-03-01T01:49:01;13.40;;;7.68;;
47856;SDS011;33618;49.972;8.242;2023-03-01T01:51:39;13.25;;;8.63;;
47856;SDS011;33618;49.972;8.242;2023-03-01T01:54:12;11.60;;;8.07;;
47856;SDS011;33618;49.972;8.242;2023-03-01T01:56:44;13.13;;;8.70;;
47856;SDS011;33618;49.972;8.242;2023-03-01T01:59:15;13.90;;;8.40;;
47856;SDS011;33618;49.972;8.242;2023-03-01T02:01:42;11.85;;;8.27;;
47856;SDS011;33618;49.972;8.242;2023-03-01T02:04:10;15.85;;;8.15;;
47856;SDS011;33618;49.972;8.242;2023-03-01T02:06:38;14.63;;;8.82;;
47856;SDS011;33618;49.972;8.242;2023-03-01T02:09:12;14.70;;;8.57;;
47856;SDS011;33618;49.972;8.242;2023-03-01T02:11:42;16.55;;;8.65;;
47856;SDS011;33618;49.972;8.242;2023-03-01T02:14:10;17.83;;;8.90;;
47856;SDS011;33618;49.972;8.242;2023-03-01T02:16:37;14.77;;;8.60;;
47856;SDS011;33618;49.972;8.242;2023-03-01T02:19:05;17.45;;;9.27;;
47856;SDS011;33618;49.972;8.242;2023-03-01T02:21:44;14.50;;;9.27;;
47856;SDS011;33618;49.972;8.242;2023-03-01T02:27:20;17.60;;;8.88;;
47856;SDS011;33618;49.972;8.242;2023-03-01T02:29:52;17.20;;;8.57;;
47856;SDS011;33618;49.972;8.242;2023-03-01T02:32:21;13.40;;;8.80;;
47856;SDS011;33618;49.972;8.242;2023-03-01T02:34:53;15.00;;;9.00;;
47856;SDS011;33618;49.972;8.242;2023-03-01T02:37:21;14.55;;;8.70;;
47856;SDS011;33618;49.972;8.242;2023-03-01T02:39:53;16.13;;;8.98;;
47856;SDS011;33618;49.972;8.242;2023-03-01T02:42:30;16.75;;;9.27;;
47856;SDS011;33618;49.972;8.242;2023-03-01T02:45:02;14.15;;;8.80;;
47856;SDS011;33618;49.972;8.242;2023-03-01T02:47:29;14.57;;;8.27;;
47856;SDS011;33618;49.972;8.242;2023-03-01T02:49:56;16.88;;;9.20;;
47856;SDS011;33618;49.972;8.242;2023-03-01T02:52:27;13.52;;;8.75;;
47856;SDS011;33618;49.972;8.242;2023-03-01T02:57:40;14.90;;;9.32;;
47856;SDS011;33618;49.972;8.242;2023-03-01T03:00:10;22.23;;;9.15;;
47856;SDS011;33618;49.972;8.242;2023-03-01T03:02:49;16.58;;;9.00;;
47856;SDS011;33618;49.972;8.242;2023-03-01T03:05:20;14.05;;;8.77;;
47856;SDS011;33618;49.972;8.242;2023-03-01T03:07:49;16.48;;;9.98;;
47856;SDS011;33618;49.972;8.242;2023-03-01T03:10:18;13.63;;;8.20;;
47856;SDS011;33618;49.972;8.242;2023-03-01T03:12:51;12.75;;;8.93;;
47856;SDS011;33618;49.972;8.242;2023-03-01T03:15:19;13.20;;;8.68;;
47856;SDS011;33618;49.972;8.242;2023-03-01T03:17:47;12.93;;;8.45;;
47856;SDS011;33618;49.972;8.242;2023-03-01T03:22:50;17.05;;;9.45;;
47856;SDS011;33618;49.972;8.242;2023-03-01T03:25:19;14.00;;;8.80;;
47856;SDS011;33618;49.972;8.242;2023-03-01T03:27:47;19.17;;;9.68;;
47856;SDS011;33618;49.972;8.242;2023-03-01T03:30:17;15.45;;;8.70;;
47856;SDS011;33618;49.972;8.242;2023-03-01T03:32:46;15.60;;;9.75;;
47856;SDS011;33618;49.972;8.242;2023-03-01T03:35:21;14.60;;;8.77;;
47856;SDS011;33618;49.972;8.242;2023-03-01T03:37:51;15.55;;;9.20;;
47856;SDS011;33618;49.972;8.242;2023-03-01T03:43:01;15.05;;;9.05;;
47856;SDS011;33618;49.972;8.242;2023-03-01T03:45:32;15.45;;;9.75;;
47856;SDS011;33618;49.972;8.242;2023-03-01T03:48:00;16.85;;;9.00;;
47856;SDS011;33618;49.972;8.242;2023-03-01T03:50:27;16.05;;;9.50;;
47856;SDS011;33618;49.972;8.242;2023-03-01T03:52:54;14.57;;;9.00;;
47856;SDS011;33618;49.972;8.242;2023-03-01T03:55:22;15.07;;;9.15;;
47856;SDS011;33618;49.972;8.242;2023-03-01T03:57:49;17.25;;;9.40;;
47856;SDS011;33618;49.972;8.242;2023-03-01T04:00:21;17.95;;;9.43;;
47856;SDS011;33618;49.972;8.242;2023-03-01T04:02:50;15.25;;;8.82;;
47856;SDS011;33618;49.972;8.242;2023-03-01T04:05:18;15.70;;;9.85;;
47856;SDS011;33618;49.972;8.242;2023-03-01T04:07:45;18.60;;;9.68;;
47856;SDS011;33618;49.972;8.242;2023-03-01T04:10:16;19.65;;;10.52;;
47856;SDS011;33618;49.972;8.242;2023-03-01T04:12:44;15.38;;;9.18;;
47856;SDS011;33618;49.972;8.242;2023-03-01T04:15:11;13.93;;;9.25;;
47856;SDS011;33618;49.972;8.242;2023-03-01T04:17:45;17.02;;;10.23;;
47856;SDS011;33618;49.972;8.242;2023-03-01T04:20:14;18.38;;;9.35;;
47856;SDS011;33618;49.972;8.242;2023-03-01T04:22:51;16.98;;;9.80;;
47856;SDS011;33618;49.972;8.242;2023-03-01T04:25:23;17.75;;;10.23;;
47856;SDS011;33618;49.972;8.242;2023-03-01T04:27:51;19.33;;;10.38;;
47856;SDS011;33618;49.972;8.242;2023-03-01T04:30:18;15.45;;;9.77;;
47856;SDS011;33618;49.972;8.242;2023-03-01T04:32:45;19.27;;;10.13;;
47856;SDS011;33618;49.972;8.242;2023-03-01T04:35:12;17.73;;;9.65;;
47856;SDS011;33618;49.972;8.242;2023-03-01T04:37:39;18.05;;;10.27;;
47856;SDS011;33618;49.972;8.242;2023-03-01T04:40:08;16.75;;;10.00;;
47856;SDS011;33618;49.972;8.242;2023-03-01T04:42:42;16.90;;;9.52;;
47856;SDS011;33618;49.972;8.242;2023-03-01T04:45:09;16.85;;;9.90;;
47856;SDS011;33618;49.972;8.242;2023-03-01T04:47:43;16.85;;;9.70;;
47856;SDS011;33618;49.972;8.242;2023-03-01T04:50:13;18.90;;;9.90;;
47856;SDS011;33618;49.972;8.242;2023-03-01T04:52:42;16.95;;;10.02;;
47856;SDS011;33618;49.972;8.242;2023-03-01T04:55:10;17.95;;;9.85;;
47856;SDS011;33618;49.972;8.242;2023-03-01T04:57:37;18.90;;;9.55;;
47856;SDS011;33618;49.972;8.242;2023-03-01T05:00:06;18.33;;;10.05;;
47856;SDS011;33618;49.972;8.242;2023-03-01T05:05:14;17.70;;;9.88;;
47856;SDS011;33618;49.972;8.242;2023-03-01T05:07:42;17.08;;;9.60;;
47856;SDS011;33618;49.972;8.242;2023-03-01T05:10:09;16.63;;;9.70;;
47856;SDS011;33618;49.972;8.242;2023-03-01T05:12:36;17.33;;;9.93;;
47856;SDS011;33618;49.972;8.242;2023-03-01T05:15:04;17.90;;;10.52;;
47856;SDS011;33618;49.972;8.242;2023-03-01T05:17:33;19.30;;;10.23;;
47856;SDS011;33618;49.972;8.242;2023-03-01T05:20:00;19.63;;;10.18;;
47856;SDS011;33618;49.972;8.242;2023-03-01T05:22:30;16.35;;;9.68;;
47856;SDS011;33618;49.972;8.242;2023-03-01T05:24:57;19.13;;;10.50;;
47856;SDS011;33618;49.972;8.242;2023-03-01T05:27:24;24.48;;;10.50;;
47856;SDS011;33618;49.972;8.242;2023-03-01T05:29:51;18.92;;;10.73;;
47856;SDS011;33618;49.972;8.242;2023-03-01T05:32:18;20.05;;;10.57;;
47856;SDS011;33618;49.972;8.242;2023-03-01T05:34:46;18.38;;;10.18;;
47856;SDS011;33618;49.972;8.242;2023-03-01T05:37:13;19.23;;;10.52;;
47856;SDS011;33618;49.972;8.242;2023-03-01T05:39:40;18.10;;;9.93;;
47856;SDS011;33618;49.972;8.242;2023-03-01T05:42:09;20.65;;;10.30;;
47856;SDS011;33618;49.972;8.242;2023-03-01T05:44:37;19.30;;;10.48;;
47856;SDS011;33618;49.972;8.242;2023-03-01T05:47:04;17.40;;;10.25;;
47856;SDS011;33618;49.972;8.242;2023-03-01T05:49:31;19.33;;;10.95;;
47856;SDS011;33618;49.972;8.242;2023-03-01T05:51:58;20.67;;;10.98;;
47856;SDS011;33618;49.972;8.242;2023-03-01T05:54:25;22.83;;;10.40;;
47856;SDS011;33618;49.972;8.242;2023-03-01T05:56:53;18.35;;;10.52;;
47856;SDS011;33618;49.972;8.242;2023-03-01T05:59:19;18.52;;;10.45;;
47856;SDS011;33618;49.972;8.242;2023-03-01T06:01:46;18.50;;;10.30;;
47856;SDS011;33618;49.972;8.242;2023-03-01T06:04:13;19.70;;;10.60;;
47856;SDS011;33618;49.972;8.242;2023-03-01T06:06:42;18.92;;;10.60;;
47856;SDS011;33618;49.972;8.242;2023-03-01T06:09:10;18.95;;;10.45;;
47856;SDS011;33618;49.972;8.242;2023-03-01T06:11:37;18.67;;;10.35;;
47856;SDS011;33618;49.972;8.242;2023-03-01T06:14:05;20.02;;;10.07;;
47856;SDS011;33618;49.972;8.242;2023-03-01T06:16:34;23.10;;;10.57;;
47856;SDS011;33618;49.972;8.242;2023-03-01T06:19:01;16.02;;;9.75;;
47856;SDS011;33618;49.972;8.242;2023-03-01T06:21:28;18.30;;;10.90;;
47856;SDS011;33618;49.972;8.242;2023-03-01T06:23:54;19.40;;;10.30;;
47856;SDS011;33618;49.972;8.242;2023-03-01T06:26:21;20.38;;;10.68;;
47856;SDS011;33618;49.972;8.242;2023-03-01T06:28:48;20.23;;;10.93;;
47856;SDS011;33618;49.972;8.242;2023-03-01T06:31:15;18.42;;;10.35;;
47856;SDS011;33618;49.972;8.242;2023-03-01T06:33:42;17.45;;;10.02;;
47856;SDS011;33618;49.972;8.242;2023-03-01T06:36:10;24.52;;;11.07;;
47856;SDS011;33618;49.972;8.242;2023-03-01T06:38:38;20.63;;;10.10;;
47856;SDS011;33618;49.972;8.242;2023-03-01T06:41:07;19.08;;;9.93;;
47856;SDS011;33618;49.972;8.242;2023-03-01T06:43:34;18.63;;;9.90;;
47856;SDS011;33618;49.972;8.242;2023-03-01T06:46:03;17.10;;;9.98;;
47856;SDS011;33618;49.972;8.242;2023-03-01T06:48:33;19.17;;;9.77;;
47856;SDS011;33618;49.972;8.242;2023-03-01T06:51:00;19.75;;;10.48;;
47856;SDS011;33618;49.972;8.242;2023-03-01T06:53:28;20.83;;;9.88;;
47856;SDS011;33618;49.972;8.242;2023-03-01T06:55:56;15.93;;;9.98;;
47856;SDS011;33618;49.972;8.242;2023-03-01T06:58:23;17.33;;;9.73;;
47856;SDS011;33618;49.972;8.242;2023-03-01T07:00:50;17.48;;;10.02;;
47856;SDS011;33618;49.972;8.242;2023-03-01T07:03:17;19.35;;;10.10;;
47856;SDS011;33618;49.972;8.242;2023-03-01T07:05:44;17.90;;;9.68;;
47856;SDS011;33618;49.972;8.242;2023-03-01T07:08:11;17.65;;;9.13;;
47856;SDS011;33618;49.972;8.242;2023-03-01T07:10:38;16.08;;;9.73;;
47856;SDS011;33618;49.972;8.242;2023-03-01T07:13:05;20.83;;;10.95;;
47856;SDS011;33618;49.972;8.242;2023-03-01T07:15:33;17.58;;;9.82;;
47856;SDS011;33618;49.972;8.242;2023-03-01T07:18:00;16.48;;;9.43;;
47856;SDS011;33618;49.972;8.242;2023-03-01T07:20:28;15.45;;;9.20;;
47856;SDS011;33618;49.972;8.242;2023-03-01T07:22:55;18.02;;;9.82;;
47856;SDS011;33618;49.972;8.242;2023-03-01T07:25:24;19.00;;;9.90;;
47856;SDS011;33618;49.972;8.242;2023-03-01T07:27:52;18.75;;;9.75;;
47856;SDS011;33618;49.972;8.242;2023-03-01T07:30:20;14.48;;;9.07;;
47856;SDS011;33618;49.972;8.242;2023-03-01T07:32:47;16.85;;;9.70;;
47856;SDS011;33618;49.972;8.242;2023-03-01T07:35:15;16.42;;;8.73;;
47856;SDS011;33618;49.972;8.242;2023-03-01T07:37:42;16.00;;;9.40;;
47856;SDS011;33618;49.972;8.242;2023-03-01T07:40:09;17.95;;;9.40;;
47856;SDS011;33618;49.972;8.242;2023-03-01T07:42:37;17.38;;;10.20;;
47856;SDS011;33618;49.972;8.242;2023-03-01T07:45:04;14.85;;;9.40;;
47856;SDS011;33618;49.972;8.242;2023-03-01T07:47:32;15.38;;;9.45;;
47856;SDS011;33618;49.972;8.242;2023-03-01T07:49:59;15.57;;;9.02;;
47856;SDS011;33618;49.972;8.242;2023-03-01T07:52:27;17.80;;;9.82;;
47856;SDS011;33618;49.972;8.242;2023-03-01T07:54:54;17.13;;;9.20;;
47856;SDS011;33618;49.972;8.242;2023-03-01T07:57:21;18.42;;;10.25;;
47856;SDS011;33618;49.972;8.242;2023-03-01T07:59:49;16.10;;;9.48;;
47856;SDS011;33618;49.972;8.242;2023-03-01T08:02:16;18.17;;;9.57;;
47856;SDS011;33618;49.972;8.242;2023-03-01T08:04:43;19.65;;;9.65;;
47856;SDS011;33618;49.972;8.242;2023-03-01T08:07:10;20.08;;;9.90;;
47856;SDS011;33618;49.972;8.242;2023-03-01T08:09:37;14.23;;;9.15;;
47856;SDS011;33618;49.972;8.242;2023-03-01T08:12:04;16.30;;;9.40;;
47856;SDS011;33618;49.972;8.242;2023-03-01T08:14:32;17.50;;;9.48;;
47856;SDS011;33618;49.972;8.242;2023-03-01T08:16:59;16.85;;;9.88;;
47856;SDS011;33618;49.972;8.242;2023-03-01T08:19:29;17.67;;;9.23;;
47856;SDS011;33618;49.972;8.242;2023-03-01T08:21:56;16.63;;;9.70;;
47856;SDS011;33618;49.972;8.242;2023-03-01T08:24:24;18.02;;;9.65;;
47856;SDS011;33618;49.972;8.242;2023-03-01T08:26:52;17.98;;;9.50;;
47856;SDS011;33618;49.972;8.242;2023-03-01T08:29:19;18.52;;;9.80;;
47856;SDS011;33618;49.972;8.242;2023-03-01T08:31:47;19.15;;;10.15;;
47856;SDS011;33618;49.972;8.242;2023-03-01T08:34:16;16.83;;;10.05;;
47856;SDS011;33618;49.972;8.242;2023-03-01T08:36:44;15.10;;;9.20;;
47856;SDS011;33618;49.972;8.242;2023-03-01T08:39:13;16.63;;;10.18;;
47856;SDS011;33618;49.972;8.242;2023-03-01T08:41:42;17.35;;;10.10;;
47856;SDS011;33618;49.972;8.242;2023-03-01T08:44:14;15.20;;;10.23;;
47856;SDS011;33618;49.972;8.242;2023-03-01T08:46:43;16.13;;;9.60;;
47856;SDS011;33618;49.972;8.242;2023-03-01T08:49:13;15.35;;;9.63;;
47856;SDS011;33618;49.972;8.242;2023-03-01T08:51:41;17.10;;;9.90;;
47856;SDS011;33618;49.972;8.242;2023-03-01T08:54:11;15.90;;;10.38;;
47856;SDS011;33618;49.972;8.242;2023-03-01T08:56:45;15.80;;;9.43;;
47856;SDS011;33618;49.972;8.242;2023-03-01T08:59:13;15.80;;;9.40;;
47856;SDS011;33618;49.972;8.242;2023-03-01T09:01:41;18.75;;;10.48;;
47856;SDS011;33618;49.972;8.242;2023-03-01T09:04:10;12.02;;;9.00;;
47856;SDS011;33618;49.972;8.242;2023-03-01T09:06:38;15.68;;;9.45;;
47856;SDS011;33618;49.972;8.242;2023-03-01T09:09:05;16.10;;;9.68;;
47856;SDS011;33618;49.972;8.242;2023-03-01T09:11:34;13.38;;;9.75;;
47856;SDS011;33618;49.972;8.242;2023-03-01T09:14:01;12.60;;;9.50;;
47856;SDS011;33618;49.972;8.242;2023-03-01T09:16:32;18.23;;;10.02;;
47856;SDS011;33618;49.972;8.242;2023-03-01T09:19:02;14.40;;;9.63;;
47856;SDS011;33618;49.972;8.242;2023-03-01T09:21:30;14.35;;;9.85;;
47856;SDS011;33618;49.972;8.242;2023-03-01T09:24:06;15.60;;;9.40;;
47856;SDS011;33618;49.972;8.242;2023-03-01T09:26:40;14.23;;;10.05;;
47856;SDS011;33618;49.972;8.242;2023-03-01T09:29:07;16.08;;;9.48;;
47856;SDS011;33618;49.972;8.242;2023-03-01T09:31:36;14.63;;;9.88;;
47856;SDS011;33618;49.972;8.242;2023-03-01T09:34:03;17.48;;;10.13;;
47856;SDS011;33618;49.972;8.242;2023-03-01T09:36:30;13.43;;;9.70;;
47856;SDS011;33618;49.972;8.242;2023-03-01T09:38:58;14.68;;;9.80;;
47856;SDS011;33618;49.972;8.242;2023-03-01T09:43:57;15.55;;;9.85;;
47856;SDS011;33618;49.972;8.242;2023-03-01T09:46:30;13.55;;;9.65;;
47856;SDS011;33618;49.972;8.242;2023-03-01T09:49:05;15.02;;;9.50;;
47856;SDS011;33618;49.972;8.242;2023-03-01T09:52:29;16.13;;;10.48;;
47856;SDS011;33618;49.972;8.242;2023-03-01T09:54:52;15.00;;;9.98;;
47856;SDS011;33618;49.972;8.242;2023-03-01T09:57:28;13.73;;;9.80;;
47856;SDS011;33618;49.972;8.242;2023-03-01T10:03:12;15.43;;;10.32;;
47856;SDS011;33618;49.972;8.242;2023-03-01T10:08:34;15.43;;;10.10;;
47856;SDS011;33618;49.972;8.242;2023-03-01T10:11:16;15.48;;;10.23;;
47856;SDS011;33618;49.972;8.242;2023-03-01T10:19:23;15.90;;;10.23;;
47856;SDS011;33618;49.972;8.242;2023-03-01T10:21:56;20.75;;;10.55;;
47856;SDS011;33618;49.972;8.242;2023-03-01T10:24:28;19.83;;;10.95;;
47856;SDS011;33618;49.972;8.242;2023-03-01T10:29:48;19.23;;;10.90;;
47856;SDS011;33618;49.972;8.242;2023-03-01T10:32:17;15.93;;;10.60;;
47856;SDS011;33618;49.972;8.242;2023-03-01T10:34:45;18.73;;;10.35;;
47856;SDS011;33618;49.972;8.242;2023-03-01T10:40:02;18.50;;;10.65;;
47856;SDS011;33618;49.972;8.242;2023-03-01T10:42:46;14.82;;;10.85;;
47856;SDS011;33618;49.972;8.242;2023-03-01T10:51:04;17.85;;;10.88;;
47856;SDS011;33618;49.972;8.242;2023-03-01T10:53:37;16.50;;;10.73;;
47856;SDS011;33618;49.972;8.242;2023-03-01T10:56:09;15.18;;;10.35;;
47856;SDS011;33618;49.972;8.242;2023-03-01T10:58:40;15.40;;;10.68;;
47856;SDS011;33618;49.972;8.242;2023-03-01T11:06:32;20.30;;;10.95;;
47856;SDS011;33618;49.972;8.242;2023-03-01T11:09:14;17.90;;;11.27;;
47856;SDS011;33618;49.972;8.242;2023-03-01T11:11:46;17.15;;;11.05;;
47856;SDS011;33618;49.972;8.242;2023-03-01T11:14:25;14.70;;;10.70;;
47856;SDS011;33618;49.972;8.242;2023-03-01T11:17:04;16.95;;;10.60;;
47856;SDS011;33618;49.972;8.242;2023-03-01T11:19:47;15.13;;;10.10;;
47856;SDS011;33618;49.972;8.242;2023-03-01T11:23:04;14.90;;;10.45;;
47856;SDS011;33618;49.972;8.242;2023-03-01T11:25:36;15.07;;;10.82;;
47856;SDS011;33618;49.972;8.242;2023-03-01T11:28:06;16.40;;;11.30;;
47856;SDS011;33618;49.972;8.242;2023-03-01T11:30:44;18.67;;;10.85;;
47856;SDS011;33618;49.972;8.242;2023-03-01T11:33:41;16.35;;;10.70;;
47856;SDS011;33618;49.972;8.242;2023-03-01T11:38:56;16.05;;;10.45;;
47856;SDS011;33618;49.972;8.242;2023-03-01T11:41:30;15.02;;;10.45;;
47856;SDS011;33618;49.972;8.242;2023-03-01T11:44:03;13.68;;;10.40;;
47856;SDS011;33618;49.972;8.242;2023-03-01T11:49:32;16.40;;;10.73;;
47856;SDS011;33618;49.972;8.242;2023-03-01T11:54:54;13.23;;;10.13;;
47856;SDS011;33618;49.972;8.242;2023-03-01T12:16:45;12.48;;;9.40;;
47856;SDS011;33618;49.972;8.242;2023-03-01T12:24:35;12.13;;;8.80;;
47856;SDS011;33618;49.972;8.242;2023-03-01T12:33:20;10.63;;;8.80;;
47856;SDS011;33618;49.972;8.242;2023-03-01T12:38:49;11.70;;;8.27;;
47856;SDS011;33618;49.972;8.242;2023-03-01T12:41:40;11.35;;;8.80;;
47856;SDS011;33618;49.972;8.242;2023-03-01T12:47:23;12.73;;;8.48;;
47856;SDS011;33618;49.972;8.242;2023-03-01T12:49:54;10.90;;;8.48;;
47856;SDS011;33618;49.972;8.242;2023-03-01T12:55:08;13.63;;;8.43;;
47856;SDS011;33618;49.972;8.242;2023-03-01T12:57:47;9.50;;;8.50;;
47856;SDS011;33618;49.972;8.242;2023-03-01T13:00:27;10.30;;;8.10;;
47856;SDS011;33618;49.972;8.242;2023-03-01T13:03:06;9.55;;;8.15;;
47856;SDS011;33618;49.972;8.242;2023-03-01T13:08:40;8.98;;;7.75;;
47856;SDS011;33618;49.972;8.242;2023-03-01T13:11:17;9.18;;;8.05;;
47856;SDS011;33618;49.972;8.242;2023-03-01T13:13:46;10.13;;;7.90;;
47856;SDS011;33618;49.972;8.242;2023-03-01T13:16:22;8.50;;;7.68;;
47856;SDS011;33618;49.972;8.242;2023-03-01T13:21:41;10.73;;;7.22;;
47856;SDS011;33618;49.972;8.242;2023-03-01T13:29:58;8.15;;;7.28;;
47856;SDS011;33618;49.972;8.242;2023-03-01T13:32:32;8.48;;;7.47;;
47856;SDS011;33618;49.972;8.242;2023-03-01T13:37:37;7.70;;;6.90;;
47856;SDS011;33618;49.972;8.242;2023-03-01T13:42:47;8.73;;;7.32;;
47856;SDS011;33618;49.972;8.242;2023-03-01T13:48:08;8.55;;;7.00;;
47856;SDS011;33618;49.972;8.242;2023-03-01T13:50:48;8.07;;;7.05;;
47856;SDS011;33618;49.972;8.242;2023-03-01T13:53:19;8.93;;;6.88;;
47856;SDS011;33618;49.972;8.242;2023-03-01T13:55:56;7.88;;;7.03;;
47856;SDS011;33618;49.972;8.242;2023-03-01T13:58:33;7.72;;;6.85;;
47856;SDS011;33618;49.972;8.242;2023-03-01T14:01:21;7.70;;;6.82;;
47856;SDS011;33618;49.972;8.242;2023-03-01T14:03:50;7.43;;;6.65;;
47856;SDS011;33618;49.972;8.242;2023-03-01T14:06:28;7.75;;;6.95;;
47856;SDS011;33618;49.972;8.242;2023-03-01T14:09:13;8.35;;;6.88;;
47856;SDS011;33618;49.972;8.242;2023-03-01T14:17:55;7.28;;;6.53;;
47856;SDS011;33618;49.972;8.242;2023-03-01T14:20:44;13.40;;;6.88;;
47856;SDS011;33618;49.972;8.242;2023-03-01T14:23:18;8.82;;;6.38;;
47856;SDS011;33618;49.972;8.242;2023-03-01T14:25:48;8.98;;;6.45;;
47856;SDS011;33618;49.972;8.242;2023-03-01T14:30:51;7.18;;;6.47;;
47856;SDS011;33618;49.972;8.242;2023-03-01T14:33:30;11.93;;;6.38;;
47856;SDS011;33618;49.972;8.242;2023-03-01T14:36:04;6.93;;;6.22;;
47856;SDS011;33618;49.972;8.242;2023-03-01T14:38:37;48.58;;;21.20;;
47856;SDS011;33618;49.972;8.242;2023-03-01T14:43:52;20.30;;;10.13;;
47856;SDS011;33618;49.972;8.242;2023-03-01T14:46:26;7.32;;;6.63;;
47856;SDS011;33618;49.972;8.242;2023-03-01T14:49:02;7.65;;;6.25;;
47856;SDS011;33618;49.972;8.242;2023-03-01T14:51:59;8.18;;;6.72;;
47856;SDS011;33618;49.972;8.242;2023-03-01T14:54:34;6.45;;;5.60;;
47856;SDS011;33618;49.972;8.242;2023-03-01T14:57:04;6.93;;;6.32;;
47856;SDS011;33618;49.972;8.242;2023-03-01T14:59:32;8.20;;;6.93;;
47856;SDS011;33618;49.972;8.242;2023-03-01T15:02:00;8.40;;;6.43;;
47856;SDS011;33618;49.972;8.242;2023-03-01T15:04:28;7.30;;;6.22;;
47856;SDS011;33618;49.972;8.242;2023-03-01T15:06:57;7.22;;;6.47;;
47856;SDS011;33618;49.972;8.242;2023-03-01T15:09:32;7.38;;;6.25;;
47856;SDS011;33618;49.972;8.242;2023-03-01T15:12:23;7.53;;;6.28;;
47856;SDS011;33618;49.972;8.242;2023-03-01T15:14:56;8.40;;;6.10;;
47856;SDS011;33618;49.972;8.242;2023-03-01T15:17:34;7.95;;;6.68;;
47856;SDS011;33618;49.972;8.242;2023-03-01T15:20:04;6.85;;;6.15;;
47856;SDS011;33618;49.972;8.242;2023-03-01T15:22:33;6.85;;;5.95;;
47856;SDS011;33618;49.972;8.242;2023-03-01T15:25:01;7.03;;;6.05;;
47856;SDS011;33618;49.972;8.242;2023-03-01T15:27:29;8.32;;;6.65;;
47856;SDS011;33618;49.972;8.242;2023-03-01T15:29:59;8.30;;;6.30;;
47856;SDS011;33618;49.972;8.242;2023-03-01T15:32:29;9.43;;;6.75;;
47856;SDS011;33618;49.972;8.242;2023-03-01T15:35:00;8.23;;;6.18;;
47856;SDS011;33618;49.972;8.242;2023-03-01T15:37:48;7.57;;;6.40;;
47856;SDS011;33618;49.972;8.242;2023-03-01T15:40:19;7.20;;;6.50;;
47856;SDS011;33618;49.972;8.242;2023-03-01T15:43:00;7.85;;;6.20;;
47856;SDS011;33618;49.972;8.242;2023-03-01T15:45:31;9.65;;;6.38;;
47856;SDS011;33618;49.972;8.242;2023-03-01T15:48:01;7.68;;;6.00;;
47856;SDS011;33618;49.972;8.242;2023-03-01T15:50:31;9.98;;;6.50;;
47856;SDS011;33618;49.972;8.242;2023-03-01T15:53:04;6.75;;;6.05;;
47856;SDS011;33618;49.972;8.242;2023-03-01T15:55:34;10.43;;;6.50;;
47856;SDS011;33618;49.972;8.242;2023-03-01T15:58:09;9.85;;;6.38;;
47856;SDS011;33618;49.972;8.242;2023-03-01T16:00:42;10.02;;;6.72;;
47856;SDS011;33618;49.972;8.242;2023-03-01T16:03:24;10.45;;;6.70;;
47856;SDS011;33618;49.972;8.242;2023-03-01T16:05:52;7.85;;;6.25;;
47856;SDS011;33618;49.972;8.242;2023-03-01T16:08:19;8.45;;;6.57;;
47856;SDS011;33618;49.972;8.242;2023-03-01T16:10:47;7.75;;;6.45;;
47856;SDS011;33618;49.972;8.242;2023-03-01T16:13:16;7.60;;;6.22;;
47856;SDS011;33618;49.972;8.242;2023-03-01T16:15:43;9.32;;;6.30;;
47856;SDS011;33618;49.972;8.242;2023-03-01T16:18:10;7.45;;;6.10;;
47856;SDS011;33618;49.972;8.242;2023-03-01T16:20:38;8.60;;;6.13;;
47856;SDS011;33618;49.972;8.242;2023-03-01T16:23:06;8.10;;;6.20;;
47856;SDS011;33618;49.972;8.242;2023-03-01T16:25:36;13.55;;;6.30;;
47856;SDS011;33618;49.972;8.242;2023-03-01T16:28:03;9.98;;;6.57;;
47856;SDS011;33618;49.972;8.242;2023-03-01T16:30:36;8.35;;;6.40;;
47856;SDS011;33618;49.972;8.242;2023-03-01T16:33:03;9.23;;;6.10;;
47856;SDS011;33618;49.972;8.242;2023-03-01T16:35:54;8.27;;;6.20;;
47856;SDS011;33618;49.972;8.242;2023-03-01T16:38:21;8.50;;;6.22;;
47856;SDS011;33618;49.972;8.242;2023-03-01T16:40:48;8.57;;;6.57;;
47856;SDS011;33618;49.972;8.242;2023-03-01T16:43:16;9.98;;;7.20;;
47856;SDS011;33618;49.972;8.242;2023-03-01T16:45:43;9.25;;;6.70;;
47856;SDS011;33618;49.972;8.242;2023-03-01T16:48:12;8.65;;;6.63;;
47856;SDS011;33618;49.972;8.242;2023-03-01T16:50:39;12.98;;;6.65;;
47856;SDS011;33618;49.972;8.242;2023-03-01T16:53:06;9.48;;;6.47;;
47856;SDS011;33618;49.972;8.242;2023-03-01T17:16:14;10.60;;;6.70;;
47856;SDS011;33618;49.972;8.242;2023-03-01T17:18:43;9.73;;;6.38;;